sensor_id;sensor_type;location;lat;lon;timestamp;pressure;altitude;pressure_sealevel;temperature;humidity
21902;BME280;11115;46.038;14.612;2022-08-18T00:01:15;98016.75;;;22.17;100.00
21902;BME280;11115;46.038;14.612;2022-08-18T00:04:16;98011.84;;;22.00;100.00
21902;BME280;11115;46.038;14.612;2022-08-18T00:07:10;98007.88;;;22.11;100.00
21902;BME280;11115;46.038;14.612;2022-08-18T00:10:05;98002.63;;;22.10;100.00
21902;BME280;11115;46.038;14.612;2022-08-18T00:12:52;98007.13;;;22.25;100.00
21902;BME280;11115;46.038;14.612;2022-08-18T00:15:45;98008.69;;;22.12;100.00
21902;BME280;11115;46.038;14.612;2022-08-18T00:18:31;98003.41;;;22.00;100.00
21902;BME280;11115;46.038;14.612;2022-08-18T00:21:19;98010.91;;;21.78;100.00
21902;BME280;11115;46.038;14.612;2022-08-18T00:24:09;98016.19;;;21.87;100.00
21902;BME280;11115;46.038;14.612;2022-08-18T00:27:04;98028.06;;;21.51;100.00
21902;BME280;11115;46.038;14.612;2022-08-18T00:29:54;98024.16;;;21.70;100.00
21902;BME280;11115;46.038;14.612;2022-08-18T00:32:43;98024.66;;;21.94;100.00
21902;BME280;11115;46.038;14.612;2022-08-18T00:35:37;98027.03;;;21.81;100.00
21902;BME280;11115;46.038;14.612;2022-08-18T00:38:26;98031.06;;;21.84;100.00
21902;BME280;11115;46.038;14.612;2022-08-18T00:41:16;98035.59;;;22.02;100.00
21902;BME280;11115;46.038;14.612;2022-08-18T00:44:06;98042.63;;;21.64;100.00
21902;BME280;11115;46.038;14.612;2022-08-18T00:46:54;98017.63;;;21.52;100.00
21902;BME280;11115;46.038;14.612;2022-08-18T00:49:43;98024.53;;;21.65;100.00
21902;BME280;11115;46.038;14.612;2022-08-18T00:52:35;98032.56;;;21.63;100.00
21902;BME280;11115;46.038;14.612;2022-08-18T00:55:22;98016.22;;;21.90;100.00
21902;BME280;11115;46.038;14.612;2022-08-18T00:58:15;98034.00;;;22.05;100.00
21902;BME280;11115;46.038;14.612;2022-08-18T01:01:08;98029.88;;;21.88;100.00
21902;BME280;11115;46.038;14.612;2022-08-18T01:04:05;98022.22;;;21.81;100.00
21902;BME280;11115;46.038;14.612;2022-08-18T01:07:00;98027.06;;;21.85;100.00
21902;BME280;11115;46.038;14.612;2022-08-18T01:09:50;98023.41;;;21.80;100.00
21902;BME280;11115;46.038;14.612;2022-08-18T01:12:38;98033.78;;;21.66;100.00
21902;BME280;11115;46.038;14.612;2022-08-18T01:15:29;98030.75;;;21.34;100.00
21902;BME280;11115;46.038;14.612;2022-08-18T01:18:17;98021.63;;;21.51;100.00
21902;BME280;11115;46.038;14.612;2022-08-18T01:21:26;97998.56;;;21.24;100.00
21902;BME280;11115;46.038;14.612;2022-08-18T01:24:34;98015.44;;;21.24;100.00
21902;BME280;11115;46.038;14.612;2022-08-18T01:27:41;98035.19;;;21.35;100.00
21902;BME280;11115;46.038;14.612;2022-08-18T01:30:43;98033.53;;;21.27;100.00
21902;BME280;11115;46.038;14.612;2022-08-18T01:33:39;98024.75;;;21.35;100.00
21902;BME280;11115;46.038;14.612;2022-08-18T01:36:25;98032.59;;;21.15;100.00
21902;BME280;11115;46.038;14.612;2022-08-18T01:39:18;98029.75;;;21.08;100.00
21902;BME280;11115;46.038;14.612;2022-08-18T01:42:07;98037.75;;;21.03;100.00
21902;BME280;11115;46.038;14.612;2022-08-18T01:44:54;98033.94;;;21.29;100.00
21902;BME280;11115;46.038;14.612;2022-08-18T01:47:43;98034.88;;;20.99;100.00
21902;BME280;11115;46.038;14.612;2022-08-18T01:50:36;98035.00;;;21.13;100.00
21902;BME280;11115;46.038;14.612;2022-08-18T01:53:34;98034.16;;;21.06;100.00
21902;BME280;11115;46.038;14.612;2022-08-18T01:56:31;98038.41;;;20.89;100.00
21902;BME280;11115;46.038;14.612;2022-08-18T01:59:22;98039.69;;;20.54;100.00
21902;BME280;11115;46.038;14.612;2022-08-18T02:02:09;98044.56;;;20.61;100.00
21902;BME280;11115;46.038;14.612;2022-08-18T02:05:16;98045.94;;;20.41;100.00
21902;BME280;11115;46.038;14.612;2022-08-18T02:08:12;98050.06;;;20.17;100.00
21902;BME280;11115;46.038;14.612;2022-08-18T02:10:58;98054.66;;;19.98;100.00
21902;BME280;11115;46.038;14.612;2022-08-18T02:13:47;98046.00;;;20.11;100.00
21902;BME280;11115;46.038;14.612;2022-08-18T02:16:37;98041.81;;;19.97;100.00
21902;BME280;11115;46.038;14.612;2022-08-18T02:19:31;98022.63;;;20.03;100.00
21902;BME280;11115;46.038;14.612;2022-08-18T02:22:19;98036.78;;;20.14;100.00
21902;BME280;11115;46.038;14.612;2022-08-18T02:25:08;98036.63;;;20.33;100.00
21902;BME280;11115;46.038;14.612;2022-08-18T02:28:15;98034.13;;;20.61;100.00
21902;BME280;11115;46.038;14.612;2022-08-18T02:31:10;98041.41;;;20.66;100.00
21902;BME280;11115;46.038;14.612;2022-08-18T02:34:01;98037.72;;;20.58;100.00
21902;BME280;11115;46.038;14.612;2022-08-18T02:36:55;98043.38;;;20.62;100.00
21902;BME280;11115;46.038;14.612;2022-08-18T02:39:42;98039.63;;;20.47;100.00
21902;BME280;11115;46.038;14.612;2022-08-18T02:42:30;98028.56;;;20.31;100.00
21902;BME280;11115;46.038;14.612;2022-08-18T02:45:21;98043.88;;;20.38;100.00
21902;BME280;11115;46.038;14.612;2022-08-18T02:48:19;98047.88;;;20.37;100.00
21902;BME280;11115;46.038;14.612;2022-08-18T02:51:10;98048.16;;;20.58;100.00
21902;BME280;11115;46.038;14.612;2022-08-18T02:53:57;98037.84;;;20.36;100.00
21902;BME280;11115;46.038;14.612;2022-08-18T02:56:46;98047.03;;;20.33;100.00
21902;BME280;11115;46.038;14.612;2022-08-18T02:59:39;98044.97;;;20.63;100.00
21902;BME280;11115;46.038;14.612;2022-08-18T03:02:26;98046.13;;;20.58;100.00
21902;BME280;11115;46.038;14.612;2022-08-18T03:05:12;98039.81;;;20.31;100.00
21902;BME280;11115;46.038;14.612;2022-08-18T03:08:06;98041.19;;;20.45;100.00
21902;BME280;11115;46.038;14.612;2022-08-18T03:10:57;98042.81;;;20.46;100.00
21902;BME280;11115;46.038;14.612;2022-08-18T03:13:47;98033.78;;;20.29;100.00
21902;BME280;11115;46.038;14.612;2022-08-18T03:16:36;98036.88;;;20.21;100.00
21902;BME280;11115;46.038;14.612;2022-08-18T03:19:28;98038.09;;;20.23;100.00
21902;BME280;11115;46.038;14.612;2022-08-18T03:22:22;98045.22;;;20.14;100.00
21902;BME280;11115;46.038;14.612;2022-08-18T03:25:08;98048.31;;;20.05;100.00
21902;BME280;11115;46.038;14.612;2022-08-18T03:27:56;98054.53;;;19.88;100.00
21902;BME280;11115;46.038;14.612;2022-08-18T03:30:45;98060.66;;;19.97;100.00
21902;BME280;11115;46.038;14.612;2022-08-18T03:33:35;98054.66;;;19.98;100.00
21902;BME280;11115;46.038;14.612;2022-08-18T03:36:25;98058.78;;;19.78;100.00
21902;BME280;11115;46.038;14.612;2022-08-18T03:39:22;98066.75;;;19.73;100.00
21902;BME280;11115;46.038;14.612;2022-08-18T03:42:09;98069.97;;;19.75;100.00
21902;BME280;11115;46.038;14.612;2022-08-18T03:45:09;98060.53;;;19.60;100.00
21902;BME280;11115;46.038;14.612;2022-08-18T03:47:58;98050.47;;;19.55;100.00
21902;BME280;11115;46.038;14.612;2022-08-18T03:50:47;98051.88;;;19.46;100.00
21902;BME280;11115;46.038;14.612;2022-08-18T03:53:36;98055.03;;;18.91;100.00
21902;BME280;11115;46.038;14.612;2022-08-18T03:56:27;98054.34;;;19.24;100.00
21902;BME280;11115;46.038;14.612;2022-08-18T03:59:20;98047.63;;;19.29;100.00
21902;BME280;11115;46.038;14.612;2022-08-18T04:02:10;98053.31;;;19.32;100.00
21902;BME280;11115;46.038;14.612;2022-08-18T04:04:58;98064.81;;;19.27;100.00
21902;BME280;11115;46.038;14.612;2022-08-18T04:07:46;98064.56;;;19.36;100.00
21902;BME280;11115;46.038;14.612;2022-08-18T04:10:33;98061.19;;;19.50;100.00
21902;BME280;11115;46.038;14.612;2022-08-18T04:13:19;98047.56;;;19.25;100.00
21902;BME280;11115;46.038;14.612;2022-08-18T04:16:11;98036.53;;;19.36;100.00
21902;BME280;11115;46.038;14.612;2022-08-18T04:19:04;98044.38;;;19.27;100.00
21902;BME280;11115;46.038;14.612;2022-08-18T04:22:02;98030.03;;;19.05;100.00
21902;BME280;11115;46.038;14.612;2022-08-18T04:24:49;98030.09;;;19.62;100.00
21902;BME280;11115;46.038;14.612;2022-08-18T04:27:39;98030.25;;;19.46;100.00
21902;BME280;11115;46.038;14.612;2022-08-18T04:30:27;98019.41;;;19.71;100.00
21902;BME280;11115;46.038;14.612;2022-08-18T04:33:17;98027.88;;;19.75;100.00
21902;BME280;11115;46.038;14.612;2022-08-18T04:36:27;98024.03;;;19.56;100.00
21902;BME280;11115;46.038;14.612;2022-08-18T04:39:15;98019.75;;;19.39;100.00
21902;BME280;11115;46.038;14.612;2022-08-18T04:42:04;98021.47;;;19.48;100.00
21902;BME280;11115;46.038;14.612;2022-08-18T04:44:55;98036.22;;;19.45;100.00
21902;BME280;11115;46.038;14.612;2022-08-18T04:47:45;98036.56;;;19.66;100.00
21902;BME280;11115;46.038;14.612;2022-08-18T04:50:36;98041.31;;;19.88;100.00
21902;BME280;11115;46.038;14.612;2022-08-18T04:53:22;98039.94;;;20.09;100.00
21902;BME280;11115;46.038;14.612;2022-08-18T04:56:28;98043.47;;;20.02;100.00
21902;BME280;11115;46.038;14.612;2022-08-18T04:59:21;98046.63;;;19.97;100.00
21902;BME280;11115;46.038;14.612;2022-08-18T05:02:12;98064.50;;;19.85;100.00
21902;BME280;11115;46.038;14.612;2022-08-18T05:05:12;98071.44;;;19.95;100.00
21902;BME280;11115;46.038;14.612;2022-08-18T05:08:07;98073.97;;;20.04;100.00
21902;BME280;11115;46.038;14.612;2022-08-18T05:10:55;98085.34;;;20.14;100.00
21902;BME280;11115;46.038;14.612;2022-08-18T05:13:50;98099.56;;;20.28;100.00
21902;BME280;11115;46.038;14.612;2022-08-18T05:16:47;98100.28;;;20.22;100.00
21902;BME280;11115;46.038;14.612;2022-08-18T05:19:34;98107.06;;;20.47;100.00
21902;BME280;11115;46.038;14.612;2022-08-18T05:22:22;98097.84;;;20.50;100.00
21902;BME280;11115;46.038;14.612;2022-08-18T05:25:10;98102.69;;;20.53;100.00
21902;BME280;11115;46.038;14.612;2022-08-18T05:27:59;98107.56;;;20.60;100.00
21902;BME280;11115;46.038;14.612;2022-08-18T05:30:49;98099.28;;;20.71;100.00
21902;BME280;11115;46.038;14.612;2022-08-18T05:33:43;98094.22;;;20.87;100.00
21902;BME280;11115;46.038;14.612;2022-08-18T05:39:57;98063.50;;;21.08;100.00
21902;BME280;11115;46.038;14.612;2022-08-18T05:42:47;98071.59;;;21.20;100.00
21902;BME280;11115;46.038;14.612;2022-08-18T05:45:36;98081.25;;;21.19;100.00
21902;BME280;11115;46.038;14.612;2022-08-18T05:48:33;98089.31;;;21.21;100.00
21902;BME280;11115;46.038;14.612;2022-08-18T05:51:30;98088.31;;;21.43;100.00
21902;BME280;11115;46.038;14.612;2022-08-18T05:54:42;98102.09;;;21.59;100.00
21902;BME280;11115;46.038;14.612;2022-08-18T05:57:55;98109.50;;;21.81;100.00
21902;BME280;11115;46.038;14.612;2022-08-18T06:00:49;98099.00;;;21.78;100.00
21902;BME280;11115;46.038;14.612;2022-08-18T06:03:50;98101.09;;;21.92;100.00
21902;BME280;11115;46.038;14.612;2022-08-18T06:06:39;98086.31;;;22.06;100.00
21902;BME280;11115;46.038;14.612;2022-08-18T06:09:33;98100.84;;;22.15;100.00
21902;BME280;11115;46.038;14.612;2022-08-18T06:12:32;98088.03;;;22.25;100.00
21902;BME280;11115;46.038;14.612;2022-08-18T06:15:41;98085.69;;;22.45;100.00
21902;BME280;11115;46.038;14.612;2022-08-18T06:22:27;98091.31;;;22.45;100.00
21902;BME280;11115;46.038;14.612;2022-08-18T06:32:29;98089.38;;;22.63;100.00
21902;BME280;11115;46.038;14.612;2022-08-18T06:42:08;98063.63;;;22.79;100.00
21902;BME280;11115;46.038;14.612;2022-08-18T06:45:02;98081.00;;;23.13;100.00
21902;BME280;11115;46.038;14.612;2022-08-18T06:48:00;98063.25;;;22.84;100.00
21902;BME280;11115;46.038;14.612;2022-08-18T06:51:04;98092.69;;;23.11;100.00
21902;BME280;11115;46.038;14.612;2022-08-18T06:54:02;98077.81;;;23.18;100.00
21902;BME280;11115;46.038;14.612;2022-08-18T06:56:56;98081.41;;;23.43;100.00
21902;BME280;11115;46.038;14.612;2022-08-18T07:00:19;98079.41;;;23.44;100.00
21902;BME280;11115;46.038;14.612;2022-08-18T07:06:29;98072.50;;;23.91;100.00
21902;BME280;11115;46.038;14.612;2022-08-18T07:09:24;98062.75;;;24.13;100.00
21902;BME280;11115;46.038;14.612;2022-08-18T07:12:18;98065.50;;;24.35;100.00
21902;BME280;11115;46.038;14.612;2022-08-18T07:15:11;98058.19;;;24.44;100.00
21902;BME280;11115;46.038;14.612;2022-08-18T07:18:06;98059.44;;;24.26;100.00
21902;BME280;11115;46.038;14.612;2022-08-18T07:21:01;98049.78;;;24.34;100.00
21902;BME280;11115;46.038;14.612;2022-08-18T07:24:01;98049.25;;;24.57;100.00
21902;BME280;11115;46.038;14.612;2022-08-18T07:36:03;98055.81;;;25.05;100.00
21902;BME280;11115;46.038;14.612;2022-08-18T07:38:57;98045.66;;;25.11;100.00
21902;BME280;11115;46.038;14.612;2022-08-18T07:42:02;98048.66;;;25.38;100.00
21902;BME280;11115;46.038;14.612;2022-08-18T07:45:56;98057.38;;;25.58;100.00
21902;BME280;11115;46.038;14.612;2022-08-18T07:48:15;98061.63;;;25.81;100.00
21902;BME280;11115;46.038;14.612;2022-08-18T07:51:28;98056.44;;;25.76;100.00
21902;BME280;11115;46.038;14.612;2022-08-18T07:58:14;98046.28;;;25.78;100.00
21902;BME280;11115;46.038;14.612;2022-08-18T08:11:42;98017.66;;;26.68;100.00
21902;BME280;11115;46.038;14.612;2022-08-18T08:14:49;98026.38;;;26.80;100.00
21902;BME280;11115;46.038;14.612;2022-08-18T08:18:11;98015.44;;;26.79;100.00
21902;BME280;11115;46.038;14.612;2022-08-18T08:21:20;98012.81;;;26.91;100.00
21902;BME280;11115;46.038;14.612;2022-08-18T08:25:02;97998.88;;;27.04;100.00
21902;BME280;11115;46.038;14.612;2022-08-18T08:28:32;97978.91;;;27.31;100.00
21902;BME280;11115;46.038;14.612;2022-08-18T08:31:19;97966.16;;;27.43;100.00
21902;BME280;11115;46.038;14.612;2022-08-18T08:34:39;97957.28;;;27.61;100.00
21902;BME280;11115;46.038;14.612;2022-08-18T08:41:04;97934.94;;;28.02;100.00
21902;BME280;11115;46.038;14.612;2022-08-18T08:47:08;97932.22;;;28.35;100.00
21902;BME280;11115;46.038;14.612;2022-08-18T08:50:12;97930.34;;;28.45;100.00
21902;BME280;11115;46.038;14.612;2022-08-18T08:56:18;97910.66;;;29.19;100.00
21902;BME280;11115;46.038;14.612;2022-08-18T08:59:17;97906.25;;;29.47;95.67
21902;BME280;11115;46.038;14.612;2022-08-18T09:12:34;97881.03;;;30.16;65.87
21902;BME280;11115;46.038;14.612;2022-08-18T09:19:03;97885.88;;;29.90;49.76
21902;BME280;11115;46.038;14.612;2022-08-18T09:25:11;97877.41;;;29.86;56.25
21902;BME280;11115;46.038;14.612;2022-08-18T09:28:43;97886.00;;;29.99;55.82
21902;BME280;11115;46.038;14.612;2022-08-18T09:31:44;97882.94;;;30.06;54.19
21902;BME280;11115;46.038;14.612;2022-08-18T09:35:28;97880.91;;;30.19;57.24
21902;BME280;11115;46.038;14.612;2022-08-18T09:38:08;97877.97;;;30.61;72.04
21902;BME280;11115;46.038;14.612;2022-08-18T09:41:22;97870.28;;;30.45;52.49
21902;BME280;11115;46.038;14.612;2022-08-18T09:50:33;97853.75;;;31.13;55.72
21902;BME280;11115;46.038;14.612;2022-08-18T10:03:14;97827.53;;;31.84;46.61
21902;BME280;11115;46.038;14.612;2022-08-18T10:06:17;97836.91;;;31.84;46.53
21902;BME280;11115;46.038;14.612;2022-08-18T10:12:58;97854.72;;;31.88;44.88
21902;BME280;11115;46.038;14.612;2022-08-18T10:22:41;97894.91;;;32.16;41.58
21902;BME280;11115;46.038;14.612;2022-08-18T10:25:43;97906.63;;;32.62;44.77
21902;BME280;11115;46.038;14.612;2022-08-18T10:34:52;97916.75;;;32.53;39.62
21902;BME280;11115;46.038;14.612;2022-08-18T10:37:42;97914.13;;;32.77;40.89
21902;BME280;11115;46.038;14.612;2022-08-18T10:40:29;97929.53;;;33.11;41.73
21902;BME280;11115;46.038;14.612;2022-08-18T10:43:49;97917.31;;;33.19;41.26
21902;BME280;11115;46.038;14.612;2022-08-18T10:46:41;97918.91;;;33.20;39.52
21902;BME280;11115;46.038;14.612;2022-08-18T10:49:31;97912.53;;;33.26;39.43
21902;BME280;11115;46.038;14.612;2022-08-18T11:02:54;97884.69;;;33.99;39.65
21902;BME280;11115;46.038;14.612;2022-08-18T11:06:10;97875.72;;;34.06;39.51
21902;BME280;11115;46.038;14.612;2022-08-18T11:09:03;97869.38;;;34.02;35.05
21902;BME280;11115;46.038;14.612;2022-08-18T11:11:52;97831.69;;;34.19;35.53
21902;BME280;11115;46.038;14.612;2022-08-18T11:14:59;97822.91;;;34.22;36.64
21902;BME280;11115;46.038;14.612;2022-08-18T11:24:25;97840.97;;;34.89;35.23
21902;BME280;11115;46.038;14.612;2022-08-18T11:27:27;97859.56;;;34.69;33.51
21902;BME280;11115;46.038;14.612;2022-08-18T11:30:16;97880.34;;;35.21;37.05
21902;BME280;11115;46.038;14.612;2022-08-18T11:33:17;97903.91;;;34.68;34.22
21902;BME280;11115;46.038;14.612;2022-08-18T11:36:10;97927.97;;;34.29;35.39
21902;BME280;11115;46.038;14.612;2022-08-18T11:39:01;97939.97;;;34.18;36.86
21902;BME280;11115;46.038;14.612;2022-08-18T11:41:50;97949.88;;;33.90;36.08
21902;BME280;11115;46.038;14.612;2022-08-18T11:44:39;97955.13;;;33.91;36.73
21902;BME280;11115;46.038;14.612;2022-08-18T11:47:28;97961.13;;;34.30;36.06
21902;BME280;11115;46.038;14.612;2022-08-18T11:50:26;97975.59;;;34.63;35.71
21902;BME280;11115;46.038;14.612;2022-08-18T11:56:45;97976.28;;;34.30;37.55
21902;BME280;11115;46.038;14.612;2022-08-18T11:59:32;97987.16;;;34.08;37.73
21902;BME280;11115;46.038;14.612;2022-08-18T12:02:24;97981.25;;;33.66;38.57
21902;BME280;11115;46.038;14.612;2022-08-18T12:05:14;97988.88;;;33.41;38.59
21902;BME280;11115;46.038;14.612;2022-08-18T12:08:13;98001.34;;;33.16;39.10
21902;BME280;11115;46.038;14.612;2022-08-18T12:11:22;98006.25;;;33.07;39.92
21902;BME280;11115;46.038;14.612;2022-08-18T12:14:17;98003.19;;;32.70;39.91
21902;BME280;11115;46.038;14.612;2022-08-18T12:17:06;98022.16;;;32.77;40.87
21902;BME280;11115;46.038;14.612;2022-08-18T12:19:55;98023.38;;;32.67;42.09
21902;BME280;11115;46.038;14.612;2022-08-18T12:22:46;98032.53;;;32.52;42.05
21902;BME280;11115;46.038;14.612;2022-08-18T12:25:33;98045.91;;;32.34;42.39
21902;BME280;11115;46.038;14.612;2022-08-18T12:28:22;98045.03;;;32.24;43.08
21902;BME280;11115;46.038;14.612;2022-08-18T12:31:19;98057.66;;;32.26;43.57
21902;BME280;11115;46.038;14.612;2022-08-18T12:34:08;98070.56;;;32.18;43.98
21902;BME280;11115;46.038;14.612;2022-08-18T12:37:00;98093.28;;;32.00;44.24
21902;BME280;11115;46.038;14.612;2022-08-18T12:40:00;98109.03;;;31.83;44.12
21902;BME280;11115;46.038;14.612;2022-08-18T12:42:50;98193.22;;;31.69;45.13
21902;BME280;11115;46.038;14.612;2022-08-18T12:45:40;98255.88;;;28.67;56.32
21902;BME280;11115;46.038;14.612;2022-08-18T12:48:29;98317.78;;;27.25;91.56
21902;BME280;11115;46.038;14.612;2022-08-18T12:51:22;98333.03;;;26.59;100.00
21902;BME280;11115;46.038;14.612;2022-08-18T12:54:11;98354.97;;;26.03;100.00
21902;BME280;11115;46.038;14.612;2022-08-18T12:57:06;98364.00;;;25.77;100.00
21902;BME280;11115;46.038;14.612;2022-08-18T12:59:55;98381.56;;;25.36;100.00
21902;BME280;11115;46.038;14.612;2022-08-18T13:02:43;98384.09;;;24.80;100.00
21902;BME280;11115;46.038;14.612;2022-08-18T13:05:30;98383.28;;;24.87;100.00
21902;BME280;11115;46.038;14.612;2022-08-18T13:08:19;98365.13;;;24.63;100.00
21902;BME280;11115;46.038;14.612;2022-08-18T13:11:07;98373.19;;;24.79;100.00
21902;BME280;11115;46.038;14.612;2022-08-18T13:14:03;98364.31;;;24.63;100.00
21902;BME280;11115;46.038;14.612;2022-08-18T13:16:50;98366.66;;;23.79;100.00
21902;BME280;11115;46.038;14.612;2022-08-18T13:19:36;98380.44;;;23.04;100.00
21902;BME280;11115;46.038;14.612;2022-08-18T13:22:24;98370.19;;;22.78;100.00
21902;BME280;11115;46.038;14.612;2022-08-18T13:25:14;98373.19;;;22.52;100.00
21902;BME280;11115;46.038;14.612;2022-08-18T13:28:03;98346.69;;;22.60;100.00
21902;BME280;11115;46.038;14.612;2022-08-18T13:30:53;98283.22;;;22.87;100.00
21902;BME280;11115;46.038;14.612;2022-08-18T13:33:43;98195.41;;;22.89;100.00
21902;BME280;11115;46.038;14.612;2022-08-18T13:36:33;98078.91;;;22.67;100.00
21902;BME280;11115;46.038;14.612;2022-08-18T13:39:31;98085.81;;;22.84;100.00
21902;BME280;11115;46.038;14.612;2022-08-18T13:42:20;98092.28;;;23.02;100.00
21902;BME280;11115;46.038;14.612;2022-08-18T13:45:09;98102.38;;;22.99;100.00
21902;BME280;11115;46.038;14.612;2022-08-18T13:48:10;98108.44;;;23.26;100.00
21902;BME280;11115;46.038;14.612;2022-08-18T13:50:59;98095.53;;;23.40;100.00
21902;BME280;11115;46.038;14.612;2022-08-18T13:53:48;98078.59;;;23.65;100.00
21902;BME280;11115;46.038;14.612;2022-08-18T13:56:37;98070.06;;;23.89;100.00
21902;BME280;11115;46.038;14.612;2022-08-18T13:59:39;98051.13;;;24.77;100.00
21902;BME280;11115;46.038;14.612;2022-08-18T14:02:39;98035.78;;;25.75;100.00
21902;BME280;11115;46.038;14.612;2022-08-18T14:05:27;97961.69;;;26.41;100.00
21902;BME280;11115;46.038;14.612;2022-08-18T14:08:17;98010.09;;;27.81;100.00
21902;BME280;11115;46.038;14.612;2022-08-18T14:11:05;98005.63;;;28.60;100.00
21902;BME280;11115;46.038;14.612;2022-08-18T14:13:56;98018.69;;;30.33;100.00
21902;BME280;11115;46.038;14.612;2022-08-18T14:16:44;98021.88;;;30.35;100.00
21902;BME280;11115;46.038;14.612;2022-08-18T14:19:32;98024.59;;;30.80;100.00
21902;BME280;11115;46.038;14.612;2022-08-18T14:22:43;98004.59;;;31.44;100.00
21902;BME280;11115;46.038;14.612;2022-08-18T14:25:47;98006.97;;;31.45;98.10
21902;BME280;11115;46.038;14.612;2022-08-18T14:28:51;97978.66;;;31.00;98.85
21902;BME280;11115;46.038;14.612;2022-08-18T14:31:40;97962.88;;;33.36;84.78
21902;BME280;11115;46.038;14.612;2022-08-18T14:34:27;97969.59;;;33.51;77.82
21902;BME280;11115;46.038;14.612;2022-08-18T14:37:18;97965.63;;;33.58;68.43
21902;BME280;11115;46.038;14.612;2022-08-18T14:40:14;97969.09;;;32.85;84.17
21902;BME280;11115;46.038;14.612;2022-08-18T14:43:09;97972.81;;;34.87;62.07
21902;BME280;11115;46.038;14.612;2022-08-18T14:45:57;97969.34;;;33.86;58.80
21902;BME280;11115;46.038;14.612;2022-08-18T14:48:46;97962.31;;;34.75;58.15
21902;BME280;11115;46.038;14.612;2022-08-18T14:51:35;97958.72;;;34.98;62.50
21902;BME280;11115;46.038;14.612;2022-08-18T14:54:30;97946.94;;;33.35;67.30
21902;BME280;11115;46.038;14.612;2022-08-18T14:57:20;97952.09;;;35.16;54.19
21902;BME280;11115;46.038;14.612;2022-08-18T15:00:17;97937.06;;;34.88;56.71
21902;BME280;11115;46.038;14.612;2022-08-18T15:03:04;97923.72;;;33.33;63.77
21902;BME280;11115;46.038;14.612;2022-08-18T15:05:53;97909.25;;;32.47;73.04
21902;BME280;11115;46.038;14.612;2022-08-18T15:08:42;97905.22;;;32.35;70.67
21902;BME280;11115;46.038;14.612;2022-08-18T15:11:32;97902.28;;;30.78;87.89
21902;BME280;11115;46.038;14.612;2022-08-18T15:14:18;97895.41;;;30.12;100.00
21902;BME280;11115;46.038;14.612;2022-08-18T15:17:04;97883.69;;;29.81;100.00
21902;BME280;11115;46.038;14.612;2022-08-18T15:19:53;97876.06;;;29.91;100.00
21902;BME280;11115;46.038;14.612;2022-08-18T15:23:02;97877.16;;;30.35;100.00
21902;BME280;11115;46.038;14.612;2022-08-18T15:26:02;97885.88;;;30.03;100.00
21902;BME280;11115;46.038;14.612;2022-08-18T15:28:53;97882.00;;;29.97;100.00
21902;BME280;11115;46.038;14.612;2022-08-18T15:31:39;97872.34;;;30.19;100.00
21902;BME280;11115;46.038;14.612;2022-08-18T15:34:29;97877.44;;;29.99;100.00
21902;BME280;11115;46.038;14.612;2022-08-18T15:37:16;97863.00;;;30.19;100.00
21902;BME280;11115;46.038;14.612;2022-08-18T15:43:06;97873.00;;;29.98;100.00
21902;BME280;11115;46.038;14.612;2022-08-18T15:46:07;97854.59;;;29.74;100.00
21902;BME280;11115;46.038;14.612;2022-08-18T15:48:54;97846.69;;;30.32;100.00
21902;BME280;11115;46.038;14.612;2022-08-18T15:51:42;97846.69;;;30.19;100.00
21902;BME280;11115;46.038;14.612;2022-08-18T15:54:30;97832.06;;;30.68;98.92
21902;BME280;11115;46.038;14.612;2022-08-18T15:57:23;97838.72;;;31.00;86.57
21902;BME280;11115;46.038;14.612;2022-08-18T16:00:13;97837.81;;;31.59;81.97
21902;BME280;11115;46.038;14.612;2022-08-18T16:03:06;97817.19;;;31.42;76.20
21902;BME280;11115;46.038;14.612;2022-08-18T16:06:12;97822.56;;;31.19;81.48
21902;BME280;11115;46.038;14.612;2022-08-18T16:09:04;97817.56;;;30.75;94.53
21902;BME280;11115;46.038;14.612;2022-08-18T16:11:51;97824.38;;;29.76;100.00
21902;BME280;11115;46.038;14.612;2022-08-18T16:14:38;97822.72;;;31.02;96.73
21902;BME280;11115;46.038;14.612;2022-08-18T16:17:25;97825.88;;;30.57;99.23
21902;BME280;11115;46.038;14.612;2022-08-18T16:20:15;97821.09;;;30.54;92.57
21902;BME280;11115;46.038;14.612;2022-08-18T16:23:06;97816.91;;;30.20;100.00
21902;BME280;11115;46.038;14.612;2022-08-18T16:25:59;97827.13;;;29.80;100.00
21902;BME280;11115;46.038;14.612;2022-08-18T16:28:51;97827.84;;;29.26;100.00
21902;BME280;11115;46.038;14.612;2022-08-18T16:31:42;97832.13;;;28.89;100.00
21902;BME280;11115;46.038;14.612;2022-08-18T16:34:44;97829.25;;;28.24;100.00
21902;BME280;11115;46.038;14.612;2022-08-18T16:37:33;97829.09;;;28.47;100.00
21902;BME280;11115;46.038;14.612;2022-08-18T16:40:27;97822.03;;;28.03;100.00
21902;BME280;11115;46.038;14.612;2022-08-18T16:43:15;97822.59;;;27.78;100.00
21902;BME280;11115;46.038;14.612;2022-08-18T16:46:29;97816.00;;;28.01;100.00
21902;BME280;11115;46.038;14.612;2022-08-18T16:49:17;97813.94;;;27.65;100.00
21902;BME280;11115;46.038;14.612;2022-08-18T16:52:05;97832.19;;;27.05;100.00
21902;BME280;11115;46.038;14.612;2022-08-18T16:54:58;97839.47;;;26.82;100.00
21902;BME280;11115;46.038;14.612;2022-08-18T16:57:47;97826.72;;;26.71;100.00
21902;BME280;11115;46.038;14.612;2022-08-18T17:00:54;97824.03;;;26.37;100.00
21902;BME280;11115;46.038;14.612;2022-08-18T17:04:00;97817.16;;;26.61;100.00
21902;BME280;11115;46.038;14.612;2022-08-18T17:06:54;97810.81;;;26.53;100.00
21902;BME280;11115;46.038;14.612;2022-08-18T17:09:51;97812.47;;;26.51;100.00
21902;BME280;11115;46.038;14.612;2022-08-18T17:12:37;97799.22;;;26.44;100.00